createdAt,value
2017-12-26T08:11:19.235Z,81.90
2017-12-26T08:13:49.390Z,85.83
2017-12-26T08:16:18.917Z,89.20
2017-12-26T08:18:48.576Z,87.63
2017-12-26T08:21:16.607Z,84.67
2017-12-26T08:23:44.560Z,86.20
2017-12-26T08:26:12.470Z,81.80
2017-12-26T08:28:40.278Z,82.67
2017-12-26T08:31:08.154Z,87.13
2017-12-26T08:33:36.042Z,82.80
2017-12-26T08:36:05.566Z,81.07
2017-12-26T08:38:33.636Z,82.50
2017-12-26T08:41:01.588Z,88.80
2017-12-26T08:43:29.590Z,82.40
2017-12-26T08:45:58.220Z,81.43
2017-12-26T08:48:26.415Z,84.40
2017-12-26T08:50:54.363Z,78.33
2017-12-26T08:56:17.570Z,82.57
2017-12-26T08:58:45.718Z,81.70
2017-12-26T09:01:16.311Z,84.10
2017-12-26T09:03:45.107Z,79.30
2017-12-26T09:06:13.203Z,84.53
2017-12-26T09:08:48.235Z,84.40
2017-12-26T09:11:16.181Z,83.77
2017-12-26T09:13:44.018Z,86.20
2017-12-26T09:16:12.078Z,83.60
2017-12-26T09:18:40.854Z,84.00
2017-12-26T09:21:09.607Z,85.60
2017-12-26T09:23:37.554Z,84.13
2017-12-26T09:26:05.402Z,87.97
2017-12-26T09:28:34.048Z,85.40
2017-12-26T09:31:02.762Z,87.43
2017-12-26T09:33:31.565Z,84.57
2017-12-26T09:36:02.544Z,92.30
2017-12-26T09:39:04.391Z,88.80
2017-12-26T09:41:32.350Z,83.77
2017-12-26T09:44:01.151Z,87.20
2017-12-26T09:46:29.070Z,88.20
2017-12-26T09:48:56.899Z,89.03
2017-12-26T09:51:25.542Z,86.40
2017-12-26T09:53:53.401Z,84.33
2017-12-26T09:56:21.201Z,86.87
2017-12-26T09:58:49.126Z,86.77
2017-12-26T10:01:16.921Z,86.23
2017-12-26T10:03:44.710Z,85.67
2017-12-26T10:06:13.311Z,87.50
2017-12-26T10:08:41.091Z,87.60
2017-12-26T10:11:08.855Z,87.17
2017-12-26T10:13:36.797Z,83.00
2017-12-26T10:16:05.350Z,89.43
2017-12-26T10:18:33.210Z,87.20
2017-12-26T10:21:01.046Z,89.17
2017-12-26T10:23:28.861Z,93.57
2017-12-26T10:25:57.681Z,89.63
2017-12-26T10:28:25.517Z,88.63
2017-12-26T10:30:53.328Z,85.13
2017-12-26T10:33:21.190Z,86.40
2017-12-26T10:35:49.283Z,81.33
2017-12-26T10:38:17.229Z,88.47
2017-12-26T10:40:45.062Z,93.33
2017-12-26T10:43:13.595Z,87.80
2017-12-26T10:45:41.409Z,87.43
2017-12-26T10:48:09.986Z,87.70
2017-12-26T10:50:38.645Z,89.17
2017-12-26T10:53:06.461Z,89.27
2017-12-26T10:55:35.043Z,90.27
2017-12-26T10:58:02.935Z,88.70
2017-12-26T11:00:31.120Z,90.03
2017-12-26T11:02:59.279Z,88.27
2017-12-26T11:05:27.120Z,90.90
2017-12-26T11:07:55.693Z,87.97
2017-12-26T11:10:25.124Z,87.53
2017-12-26T11:12:53.060Z,91.80
2017-12-26T11:15:21.618Z,87.90
2017-12-26T11:17:49.569Z,88.57
2017-12-26T11:20:17.351Z,91.27
2017-12-26T11:22:45.263Z,84.97
2017-12-26T11:25:13.072Z,88.37
2017-12-26T11:27:40.910Z,92.53
2017-12-26T11:30:08.830Z,88.30
2017-12-26T11:32:36.866Z,88.77
2017-12-26T11:35:04.818Z,93.67
2017-12-26T11:37:32.663Z,85.83
2017-12-26T11:40:00.531Z,91.10
2017-12-26T11:42:28.419Z,88.50
2017-12-26T11:44:56.234Z,87.40
2017-12-26T11:47:24.089Z,89.70
2017-12-26T11:49:51.967Z,86.50
2017-12-26T12:05:27.605Z,96.03
2017-12-26T12:07:55.398Z,94.67
2017-12-26T12:10:23.163Z,95.67
2017-12-26T12:12:50.977Z,93.07
2017-12-26T12:15:18.726Z,96.00
2017-12-26T12:17:46.545Z,97.80
2017-12-26T12:20:15.112Z,91.30
2017-12-26T12:22:42.973Z,95.30
2017-12-26T12:25:10.793Z,93.10
2017-12-26T12:27:38.724Z,88.00
2017-12-26T12:30:07.863Z,93.43
2017-12-26T12:32:35.657Z,85.13
2017-12-26T12:35:03.442Z,90.23
2017-12-26T12:37:32.077Z,88.77
2017-12-26T12:40:03.273Z,85.30
2017-12-26T12:42:31.824Z,90.97
2017-12-26T12:45:00.034Z,83.83
2017-12-26T12:47:28.775Z,88.47
2017-12-26T12:49:56.648Z,87.63
2017-12-26T12:52:24.489Z,97.43
2017-12-26T12:54:52.327Z,87.47
2017-12-26T12:57:20.858Z,92.07
2017-12-26T12:59:48.704Z,89.70
2017-12-26T13:02:16.543Z,89.67
2017-12-26T13:07:22.686Z,89.00
2017-12-26T13:09:50.511Z,89.00
2017-12-26T13:12:18.299Z,84.57
2017-12-26T13:14:46.232Z,86.67
2017-12-26T13:17:14.298Z,86.90
2017-12-26T13:19:42.486Z,87.47
2017-12-26T13:22:10.342Z,87.70
2017-12-26T13:24:39.277Z,88.37
2017-12-26T13:27:07.241Z,86.97
2017-12-26T13:29:36.571Z,88.87
2017-12-26T13:32:06.253Z,90.37
2017-12-26T13:34:34.086Z,87.23
2017-12-26T13:37:01.969Z,89.27
2017-12-26T13:39:29.850Z,86.77
2017-12-26T13:41:57.757Z,91.00
2017-12-26T13:44:28.704Z,91.83
2017-12-26T13:46:56.553Z,88.30
2017-12-26T13:49:26.143Z,90.37
2017-12-26T13:51:54.988Z,94.30
2017-12-26T13:54:22.962Z,91.23
2017-12-26T13:56:51.681Z,94.17
2017-12-26T13:59:19.629Z,93.67
2017-12-26T14:01:47.715Z,91.57
2017-12-26T14:04:15.807Z,94.93
2017-12-26T14:06:44.526Z,92.73
2017-12-26T14:09:15.838Z,92.63
2017-12-26T14:11:44.464Z,89.30
2017-12-26T14:14:12.487Z,94.50
2017-12-26T14:16:43.003Z,94.80
2017-12-26T14:19:10.888Z,90.70
2017-12-26T14:21:38.807Z,95.90
2017-12-26T14:24:06.676Z,91.37
2017-12-26T14:26:34.659Z,91.03
2017-12-26T14:29:02.874Z,94.10
2017-12-26T14:31:30.711Z,93.97
2017-12-26T14:33:59.470Z,90.20
2017-12-26T14:36:27.291Z,91.93
2017-12-26T14:38:55.160Z,91.80
2017-12-26T14:41:23.068Z,90.53
2017-12-26T14:43:50.974Z,97.80
2017-12-26T14:46:18.827Z,98.23
2017-12-26T14:48:46.790Z,96.47
2017-12-26T14:51:14.684Z,94.60
2017-12-26T14:53:43.499Z,95.87
2017-12-26T14:56:12.139Z,97.27
2017-12-26T14:58:39.999Z,98.37
2017-12-26T15:01:07.824Z,93.90
2017-12-26T15:03:36.436Z,86.77
2017-12-26T15:06:04.356Z,99.80
2017-12-26T15:08:33.059Z,102.00
2017-12-26T15:11:01.674Z,97.30
2017-12-26T15:13:29.509Z,94.90
2017-12-26T15:15:58.029Z,96.17
2017-12-26T15:18:25.936Z,99.97
2017-12-26T15:20:53.899Z,93.07
2017-12-26T15:23:22.448Z,102.27
2017-12-26T15:25:50.217Z,99.17
2017-12-26T15:28:17.972Z,99.30
2017-12-26T15:30:45.893Z,97.53
2017-12-26T15:33:13.758Z,101.97
2017-12-26T15:35:41.531Z,99.67
2017-12-26T15:38:10.284Z,98.07
2017-12-26T15:40:38.161Z,96.57
2017-12-26T15:43:05.963Z,98.50
2017-12-26T15:45:33.791Z,97.13
2017-12-26T15:48:01.661Z,96.00
2017-12-26T15:50:29.530Z,96.07
2017-12-26T15:52:57.303Z,89.57
2017-12-26T15:55:25.893Z,91.80
2017-12-26T15:57:53.693Z,88.07
2017-12-26T16:00:21.462Z,91.20
2017-12-26T16:02:50.003Z,89.07
2017-12-26T16:05:18.705Z,90.37
2017-12-26T16:07:46.573Z,92.50
2017-12-26T16:10:14.326Z,92.97
2017-12-26T16:12:42.945Z,93.07
2017-12-26T16:15:10.780Z,93.17
2017-12-26T16:17:39.445Z,90.93
2017-12-26T16:20:07.236Z,95.63
2017-12-26T16:22:35.041Z,90.57
2017-12-26T16:25:02.804Z,93.27
2017-12-26T16:27:30.569Z,92.10
2017-12-26T16:29:58.337Z,87.27
2017-12-26T16:32:26.114Z,88.30
2017-12-26T16:34:53.896Z,93.47
2017-12-26T16:37:21.662Z,91.93
2017-12-26T16:39:49.534Z,98.23
2017-12-26T16:42:18.134Z,91.93
2017-12-26T16:44:46.706Z,90.10
2017-12-26T16:47:15.286Z,89.73
2017-12-26T16:49:43.899Z,89.03
2017-12-26T16:52:11.761Z,90.37
2017-12-26T16:54:39.655Z,91.40
2017-12-26T16:57:07.500Z,92.60
2017-12-26T16:59:35.264Z,92.87
2017-12-26T17:02:03.045Z,90.37
2017-12-26T17:04:30.880Z,90.17
2017-12-26T17:06:59.495Z,92.03
2017-12-26T17:09:27.450Z,91.83
2017-12-26T17:11:55.417Z,91.97
2017-12-26T17:14:23.280Z,93.33
2017-12-26T17:16:51.155Z,94.53
2017-12-26T17:19:18.999Z,91.97
2017-12-26T17:21:46.837Z,89.33
2017-12-26T17:24:14.772Z,93.37
2017-12-26T17:26:42.590Z,93.67
2017-12-26T17:29:11.277Z,96.23
2017-12-26T17:31:39.863Z,98.17
2017-12-26T17:34:07.758Z,100.30
2017-12-26T17:36:35.640Z,93.60
2017-12-26T17:39:03.544Z,92.50
2017-12-26T17:41:31.309Z,87.90
2017-12-26T17:43:59.171Z,89.63
2017-12-26T17:46:26.998Z,86.27
2017-12-26T17:48:54.874Z,92.10
2017-12-26T17:51:22.906Z,96.47
2017-12-26T17:53:51.488Z,91.10
2017-12-26T17:56:19.267Z,99.50
2017-12-26T17:58:47.106Z,95.23
2017-12-26T18:01:15.753Z,92.70
2017-12-26T18:03:43.581Z,85.83
2017-12-26T18:06:11.442Z,91.87
2017-12-26T18:08:39.272Z,88.77
2017-12-26T18:11:07.107Z,99.10
2017-12-26T18:13:34.952Z,93.10
2017-12-26T18:16:02.815Z,97.00
2017-12-26T18:18:30.742Z,95.00
2017-12-26T18:20:59.370Z,92.30
2017-12-26T18:23:27.126Z,99.53
2017-12-26T18:25:54.936Z,93.47
2017-12-26T18:28:22.806Z,95.90
2017-12-26T18:30:50.663Z,95.77
2017-12-26T18:33:18.472Z,100.60
2017-12-26T18:35:46.305Z,96.63
2017-12-26T18:38:14.160Z,95.67
2017-12-26T18:40:41.969Z,91.40
2017-12-26T18:43:09.779Z,94.23
2017-12-26T18:45:37.692Z,90.27
2017-12-26T18:48:06.251Z,92.67
2017-12-26T18:50:34.100Z,92.87
2017-12-26T18:53:02.171Z,89.90
2017-12-26T18:55:30.129Z,90.90
2017-12-26T18:57:57.962Z,88.87
2017-12-26T19:00:25.760Z,86.67
2017-12-26T19:02:54.344Z,89.87
2017-12-26T19:05:22.299Z,88.23
2017-12-26T19:07:50.146Z,93.07
2017-12-26T19:10:17.940Z,89.30
2017-12-26T19:12:45.910Z,90.50
2017-12-26T19:15:13.740Z,90.47
2017-12-26T19:17:41.641Z,84.83
2017-12-26T19:20:09.620Z,86.17
2017-12-26T19:22:38.912Z,80.50
2017-12-26T19:25:06.885Z,83.63
2017-12-26T19:27:34.753Z,86.07
2017-12-26T19:30:02.548Z,86.67
2017-12-26T19:32:31.305Z,88.47
2017-12-26T19:34:59.149Z,91.30
2017-12-26T19:37:26.966Z,89.93
2017-12-26T19:39:55.579Z,89.07
2017-12-26T19:42:23.478Z,90.27
2017-12-26T19:44:51.420Z,77.27
2017-12-26T19:47:19.243Z,86.70
2017-12-26T19:49:47.881Z,84.57
2017-12-26T19:52:15.720Z,81.93
2017-12-26T19:54:43.637Z,82.27
2017-12-26T19:57:11.439Z,81.07
2017-12-26T19:59:40.039Z,76.67
2017-12-26T20:02:07.928Z,78.43
2017-12-26T20:04:37.445Z,78.70
2017-12-26T20:07:05.560Z,80.43
2017-12-26T20:09:34.361Z,80.57
2017-12-26T20:12:02.348Z,77.20
2017-12-26T20:14:30.190Z,80.30
2017-12-26T20:16:59.731Z,77.37
2017-12-26T20:19:27.643Z,78.73
2017-12-26T20:21:55.463Z,81.27
2017-12-26T20:24:23.327Z,78.77
2017-12-26T20:26:51.123Z,79.67
2017-12-26T20:29:20.502Z,78.20
2017-12-26T20:31:48.602Z,79.60
2017-12-26T20:34:16.963Z,80.07
2017-12-26T20:36:45.181Z,79.90
2017-12-26T20:39:13.514Z,77.20
2017-12-26T20:41:41.766Z,78.03
2017-12-26T20:44:09.653Z,75.37
2017-12-26T20:46:37.470Z,78.83
2017-12-26T20:49:06.132Z,81.57
2017-12-26T20:51:34.798Z,79.83
2017-12-26T20:54:02.852Z,80.60
2017-12-26T20:56:31.590Z,82.80
2017-12-26T20:59:00.261Z,90.63
2017-12-26T21:01:28.321Z,83.67
2017-12-26T21:03:56.261Z,83.20
2017-12-26T21:06:24.240Z,88.80
2017-12-26T21:08:52.836Z,83.80
2017-12-26T21:11:20.926Z,82.13
2017-12-26T21:13:49.970Z,70.37
2017-12-26T21:16:18.363Z,86.17
2017-12-26T21:18:46.133Z,81.77
2017-12-26T21:21:14.046Z,84.47
2017-12-26T21:23:41.823Z,85.23
2017-12-26T21:26:10.524Z,96.93
2017-12-26T21:28:38.376Z,82.87
2017-12-26T21:31:06.950Z,86.57
